Latest Coastal Weather Observations for Hillarys Point Boat Harbour

IDW60701

Issued at 10:53 am WST Saturday 5 December 2020 (issued every 10 minutes, with the page automatically refreshed every 10 minutes)

About coastal observations | Map of coastal stations | Coastal observations for WA | Marine services | Other Formats
Station Details ID: 009265 Name: HILLARYS BOAT HARBOUR NTC AWS Lat: -31.83 Lon: 115.74 Height: 0.0 m
Data from the previous 72 hours. | See also: Recent months for locations in Western Australia
Date/Time
WST
Wind Sea
Height
m
Swell Vis
km
Cloud Weather Temp
°C
Press
MSL
hPa
Rain since
9am
mm
Dir  Spd
kts
Gust
kts
Height
m
Period
s
Dir
05/10:30am SSW 8 15 - - - - - - - 18.6 1020.6 -
05/10:00am SSW 6 12 - - - - - - - 18.5 1020.8 -
05/09:30am SSW 5 13 - - - - - - - 18.6 1021.0 -
05/09:00am S 6 14 - - - - - - - 17.8 1021.0 -
05/08:30am SSE 7 16 - - - - - - - 17.7 1021.0 -
05/08:00am SSE 8 15 - - - - - - - 17.5 1021.0 -
05/07:30am SSE 7 16 - - - - - - - 17.4 1020.9 -
05/07:00am SSE 7 12 - - - - - - - 16.6 1020.7 -
05/06:30am SE 5 12 - - - - - - - 16.4 1020.3 -
05/06:00am SE 4 9 - - - - - - - 16.5 1019.9 -
05/05:30am SSE 5 10 - - - - - - - 16.4 1019.7 -
05/05:00am SE 2 6 - - - - - - - 16.3 1019.4 -
05/04:30am ESE 2 6 - - - - - - - 16.4 1019.1 -
05/04:00am SE 3 11 - - - - - - - 16.3 1018.8 -
05/03:30am SSE 5 12 - - - - - - - 16.6 1018.5 -
05/03:00am SE 4 10 - - - - - - - 16.9 1018.3 -
05/02:30am SE 4 11 - - - - - - - 16.9 1018.3 -
05/02:00am S 6 15 - - - - - - - 17.4 1018.3 -
05/01:30am S 6 17 - - - - - - - 17.9 1018.0 -
05/01:00am SSW 5 12 - - - - - - - 18.3 1017.8 -
05/12:30am S 8 19 - - - - - - - 18.3 1017.8 -
05/12:00am SSW 11 19 - - - - - - - 18.4 1017.7 -
 
Date/Time
WST
Wind Sea
Height
m
Swell Vis
km
Cloud Weather Temp
°C
Press
MSL
hPa
Rain since
9am
mm
Dir  Spd
kts
Gust
kts
Height
m
Period
s
Dir
04/11:30pm SSW 10 18 - - - - - - - 18.5 1017.8 -
04/11:00pm SSW 9 17 - - - - - - - 18.7 1017.9 -
04/10:30pm SSW 8 16 - - - - - - - 18.7 1018.0 -
04/10:00pm SSW 9 19 - - - - - - - 18.8 1017.6 -
04/09:30pm SSW 9 19 - - - - - - - 18.8 1017.5 -
04/09:00pm SSW 11 19 - - - - - - - 18.8 1017.1 -
04/08:30pm SSW 11 20 - - - - - - - 18.7 1016.9 -
04/08:00pm SSW 10 19 - - - - - - - 18.9 1016.8 -
04/07:30pm SSW 10 20 - - - - - - - 18.9 1016.4 -
04/07:00pm SSW 11 19 - - - - - - - 18.9 1016.2 -
04/06:30pm SSW 9 18 - - - - - - - 19.3 1015.9 -
04/06:00pm SSW 10 17 - - - - - - - 19.7 1015.7 -
04/05:30pm SSW 12 21 - - - - - - - 19.8 1015.5 -
04/05:00pm SSW 10 17 - - - - - - - 19.8 1015.3 -
04/04:30pm SSW 11 22 - - - - - - - 20.1 1015.2 -
04/04:00pm SW 14 22 - - - - - - - 20.3 1015.0 -
04/03:30pm SSW 13 21 - - - - - - - 20.3 1015.1 -
04/03:00pm SW 14 23 - - - - - - - 19.6 1015.2 -
04/02:30pm WSW 17 22 - - - - - - - 19.8 1015.3 -
04/02:00pm WSW 15 21 - - - - - - - 19.6 1015.2 -
04/01:30pm WSW 13 18 - - - - - - - 19.6 1015.4 -
04/01:00pm WSW 14 20 - - - - - - - 19.6 1015.3 -
04/12:30pm WSW 14 19 - - - - - - - 19.6 1015.5 -
04/12:00pm WSW 13 17 - - - - - - - 19.6 1015.4 -
04/11:30am WSW 14 19 - - - - - - - 19.5 1015.4 -
04/11:00am WSW 14 18 - - - - - - - 19.4 1015.4 -
04/10:30am WSW 14 19 - - - - - - - 19.5 1015.4 -
04/10:00am WSW 13 19 - - - - - - - 19.5 1015.4 -
04/09:30am SW 7 11 - - - - - - - 19.6 1015.3 -
04/09:00am SW 7 11 - - - - - - - 19.3 1015.3 -
04/08:30am SW 7 10 - - - - - - - 19.2 1015.2 -
04/08:00am SSW 6 9 - - - - - - - 18.9 1015.1 -
04/07:30am SSW 5 9 - - - - - - - 19.0 1014.9 -
04/07:00am SSW 7 13 - - - - - - - 18.6 1014.7 -
04/06:30am SSW 8 13 - - - - - - - 18.4 1014.5 -
04/06:00am SSW 9 16 - - - - - - - 18.4 1014.1 -
04/05:30am SSW 8 15 - - - - - - - 18.1 1013.6 -
04/05:00am SSW 9 17 - - - - - - - 18.0 1013.5 -
04/04:30am SSW 11 21 - - - - - - - 18.1 1013.3 -
04/04:00am SSW 13 23 - - - - - - - 18.1 1012.8 -
04/03:30am SSW 9 18 - - - - - - - 18.0 1012.3 -
04/03:00am SSW 13 23 - - - - - - - 18.1 1012.3 -
04/02:31am SSW 15 26 - - - - - - - 18.1 1012.3 -
04/02:30am SSW 14 26 - - - - - - - 18.1 1012.3 -
04/02:00am SSW 11 22 - - - - - - - 18.2 1012.3 -
04/01:30am SSW 11 22 - - - - - - - 18.2 1012.5 -
04/01:00am SSW 13 22 - - - - - - - 18.3 1012.6 -
04/12:30am SSW 14 24 - - - - - - - 18.3 1012.5 -
04/12:00am SSW 14 23 - - - - - - - 18.5 1012.5 -
 
Date/Time
WST
Wind Sea
Height
m
Swell Vis
km
Cloud Weather Temp
°C
Press
MSL
hPa
Rain since
9am
mm
Dir  Spd
kts
Gust
kts
Height
m
Period
s
Dir
03/11:30pm SSW 13 22 - - - - - - - 18.7 1012.7 -
03/11:00pm SSW 13 23 - - - - - - - 19.0 1012.6 -
03/10:30pm SSW 12 22 - - - - - - - 19.0 1012.5 -
03/10:00pm SSW 12 22 - - - - - - - 19.0 1012.3 -
03/09:30pm SSW 11 19 - - - - - - - 19.2 1012.3 -
03/09:00pm SSW 11 17 - - - - - - - 19.2 1011.8 -
03/08:30pm SSW 10 18 - - - - - - - 19.4 1011.9 -
03/08:00pm SSW 9 19 - - - - - - - 19.3 1011.8 -
03/07:30pm SSW 8 17 - - - - - - - 19.3 1011.6 -
03/07:00pm SSW 11 18 - - - - - - - 19.4 1011.6 -
03/06:30pm SSW 11 18 - - - - - - - 19.8 1011.3 -
03/06:00pm SSW 9 17 - - - - - - - 20.1 1011.5 -
03/05:30pm SSW 7 14 - - - - - - - 20.7 1011.2 -
03/05:00pm SSW 11 20 - - - - - - - 20.4 1011.1 -
03/04:30pm SSW 10 19 - - - - - - - 20.3 1011.4 -
03/04:00pm SSW 11 18 - - - - - - - 20.5 1011.2 -
03/03:30pm SSW 11 19 - - - - - - - 20.6 1011.4 -
03/03:00pm SSW 10 18 - - - - - - - 20.4 1011.5 -
03/02:30pm SSW 9 18 - - - - - - - 20.7 1011.8 -
03/02:00pm SSW 8 14 - - - - - - - 20.7 1011.8 -
03/01:30pm SSW 8 16 - - - - - - - 20.8 1012.2 -
03/01:00pm SSW 9 15 - - - - - - - 20.6 1012.5 -
03/12:30pm SSW 7 13 - - - - - - - 20.6 1012.8 -
03/12:00pm SSW 8 14 - - - - - - - 20.7 1013.0 -
03/11:30am SSW 7 13 - - - - - - - 20.5 1013.3 -
03/11:00am SSW 7 12 - - - - - - - 20.4 1013.4 -
03/10:30am SSW 7 12 - - - - - - - 20.4 1013.6 -
03/10:00am SW 6 11 - - - - - - - 20.6 1013.9 -
03/09:30am SSW 5 10 - - - - - - - 20.2 1014.1 -
03/09:00am SW 5 9 - - - - - - - 19.6 1014.4 -
03/08:30am SSW 3 6 - - - - - - - 19.2 1014.8 -
03/08:00am S 4 7 - - - - - - - 19.1 1014.9 -
03/07:30am SSE 4 8 - - - - - - - 18.2 1015.2 -
03/07:00am S 4 7 - - - - - - - 17.1 1015.4 -
03/06:30am SSE 4 7 - - - - - - - 16.7 1015.1 -
03/06:00am SSE 3 5 - - - - - - - 16.2 1015.3 -
03/05:30am SSE 3 5 - - - - - - - 15.7 1015.1 -
03/05:00am SSE 3 6 - - - - - - - 15.6 1014.9 -
03/04:30am ESE 1 3 - - - - - - - 15.0 1014.7 -
03/04:00am ESE 1 4 - - - - - - - 15.2 1014.5 -
03/03:30am SSE 5 9 - - - - - - - 16.2 1014.7 -
03/03:00am SSE 5 13 - - - - - - - 16.6 1014.6 -
03/02:30am SSE 5 8 - - - - - - - 16.8 1014.7 -
03/02:00am SSE 5 9 - - - - - - - 16.8 1014.8 -
03/01:30am SSE 5 12 - - - - - - - 16.9 1014.9 -
03/01:00am S 5 12 - - - - - - - 17.5 1015.2 -
03/12:30am SSE 8 13 - - - - - - - 17.9 1015.5 -
03/12:00am S 6 15 - - - - - - - 18.4 1015.8 -
 
Date/Time
WST
Wind Sea
Height
m
Swell Vis
km
Cloud Weather Temp
°C
Press
MSL
hPa
Rain since
9am
mm
Dir  Spd
kts
Gust
kts
Height
m
Period
s
Dir
02/11:30pm SSE 5 11 - - - - - - - 18.4 1016.0 -
02/11:00pm S 5 11 - - - - - - - 18.4 1016.2 -
02/10:30pm S 5 15 - - - - - - - 18.8 1016.4 -
02/10:00pm SSW 6 14 - - - - - - - 18.9 1016.6 -
02/09:30pm SSW 7 15 - - - - - - - 18.8 1016.7 -
02/09:00pm S 7 16 - - - - - - - 18.8 1016.6 -
02/08:30pm S 7 17 - - - - - - - 18.9 1016.7 -
02/08:00pm SSW 8 19 - - - - - - - 19.1 1016.7 -
02/07:30pm SSW 10 17 - - - - - - - 19.1 1016.7 -
02/07:00pm SSW 8 16 - - - - - - - 19.0 1016.5 -
02/06:30pm SSW 8 17 - - - - - - - 19.6 1016.5 -
02/06:00pm SSW 8 15 - - - - - - - 19.6 1016.4 -
02/05:30pm SSW 9 18 - - - - - - - 19.8 1016.3 -
02/05:00pm SSW 9 17 - - - - - - - 20.1 1016.3 -
02/04:30pm SSW 9 16 - - - - - - - 20.1 1016.1 -
02/04:00pm SSW 7 15 - - - - - - - 20.0 1016.1 -
02/03:30pm SSW 8 14 - - - - - - - 19.9 1016.1 -
02/03:00pm SSW 9 17 - - - - - - - 19.8 1016.4 -
02/02:30pm SSW 10 19 - - - - - - - 19.7 1016.5 -
02/02:00pm SSW 10 17 - - - - - - - 19.9 1016.7 -
02/01:30pm SSW 8 15 - - - - - - - 19.9 1017.0 -
02/01:00pm SSW 8 16 - - - - - - - 19.6 1017.3 -
02/12:30pm SSW 8 17 - - - - - - - 19.8 1017.6 -
02/12:00pm SSW 6 13 - - - - - - - 20.0 1017.4 -
02/11:30am SSW 7 15 - - - - - - - 19.5 1017.8 -
02/11:00am SSW 8 13 - - - - - - - 20.0 1018.2 -

Other formats

Comma delimited format used in spreadsheet applications
http://www.bom.gov.au/fwo/IDW60701/IDW60701.95605.axf

JavaScript Object Notation format (JSON) in row-major order
http://www.bom.gov.au/fwo/IDW60701/IDW60701.95605.json

Data quality

Most of these data are generated automatically and are frequently updated. Quality checks on data are not normally performed. It is possible for incorrect values to appear. Refer to information at About Latest Weather Observations and please check the disclaimer before using these data.